Time;durP1;ratioP1;P1;durP2;ratioP2;P2;SDS_P1;SDS_P2;PMS_P1;PMS_P2;Temp;Humidity;BMP_temperature;BMP_pressure;BME280_temperature;BME280_humidity;BME280_pressure;Samples;Min_cycle;Max_cycle;Signal;HPM_P1;HPM_P2
2022/01/09 00:01:15;;;;;;;27.10;5.33;;;6.50;99.90;;;;;;5033464;28;20538;-71
2022/01/09 00:03:41;;;;;;;32.30;5.07;;;6.60;99.90;;;;;;5033386;28;20260;-71
2022/01/09 00:06:06;;;;;;;17.77;4.40;;;6.60;99.90;;;;;;5033251;28;20296;-71
2022/01/09 00:08:32;;;;;;;22.77;4.37;;;6.60;99.90;;;;;;5033370;28;20166;-71
2022/01/09 00:10:58;;;;;;;17.50;4.27;;;6.70;99.90;;;;;;5033030;28;20198;-70
2022/01/09 00:13:23;;;;;;;26.03;4.43;;;6.60;99.90;;;;;;5032115;28;20165;-70
2022/01/09 00:15:49;;;;;;;22.90;4.50;;;6.60;99.90;;;;;;5033209;28;20209;-70
2022/01/09 00:18:14;;;;;;;22.33;4.30;;;6.70;99.90;;;;;;5033352;28;20205;-70
2022/01/09 00:20:40;;;;;;;19.67;4.13;;;6.70;99.90;;;;;;5033141;28;20641;-71
2022/01/09 00:23:06;;;;;;;13.33;4.57;;;6.70;99.90;;;;;;5032748;28;20177;-70
2022/01/09 00:25:31;;;;;;;22.07;5.77;;;6.70;99.90;;;;;;5033161;28;20299;-70
2022/01/09 00:27:57;;;;;;;30.97;4.80;;;6.70;99.90;;;;;;5033218;28;20170;-70
2022/01/09 00:30:23;;;;;;;29.90;5.03;;;6.70;99.90;;;;;;5033279;28;20197;-69
2022/01/09 00:32:50;;;;;;;19.27;4.67;;;6.70;99.90;;;;;;5033127;28;20188;-70
2022/01/09 00:35:17;;;;;;;29.17;5.30;;;6.70;99.90;;;;;;5032797;28;20218;-70
2022/01/09 00:37:43;;;;;;;23.67;5.50;;;6.70;99.90;;;;;;5032746;28;20633;-70
2022/01/09 00:40:12;;;;;;;29.20;5.20;;;6.80;99.90;;;;;;5038970;28;20260;-70
2022/01/09 00:42:38;;;;;;;27.90;5.53;;;6.90;99.90;;;;;;5039829;28;20178;-70
2022/01/09 00:45:05;;;;;;;24.30;5.43;;;6.90;99.90;;;;;;5039431;28;20306;-70
2022/01/09 00:47:30;;;;;;;25.97;5.30;;;6.90;99.90;;;;;;5038364;28;20170;-70
2022/01/09 00:49:56;;;;;;;27.40;5.43;;;6.90;99.90;;;;;;5039423;28;20506;-69
2022/01/09 00:52:22;;;;;;;32.03;5.80;;;7.00;99.90;;;;;;5039143;28;20193;-69
2022/01/09 00:54:47;;;;;;;24.10;5.70;;;7.10;99.90;;;;;;5039337;28;20662;-69
2022/01/09 00:57:13;;;;;;;42.97;6.87;;;7.00;99.90;;;;;;5039561;28;20169;-69
2022/01/09 00:59:38;;;;;;;23.53;5.37;;;7.00;99.90;;;;;;5039719;28;20324;-70
2022/01/09 01:02:04;;;;;;;29.63;6.47;;;7.10;99.90;;;;;;5038408;28;20177;-70
2022/01/09 01:04:30;;;;;;;22.03;4.63;;;7.10;99.90;;;;;;5039301;28;20224;-70
2022/01/09 01:06:56;;;;;;;23.47;5.63;;;7.20;99.90;;;;;;5039187;28;20625;-70
2022/01/09 01:09:23;;;;;;;24.60;5.57;;;7.20;99.90;;;;;;5039556;28;20185;-69
2022/01/09 01:11:49;;;;;;;15.23;4.53;;;7.20;99.90;;;;;;5039232;28;20209;-68
2022/01/09 01:14:15;;;;;;;25.53;5.73;;;7.20;99.90;;;;;;5039010;28;20579;-69
2022/01/09 01:16:41;;;;;;;20.70;5.00;;;7.10;99.90;;;;;;5039435;28;20206;-69
2022/01/09 01:19:07;;;;;;;23.93;5.13;;;7.20;99.90;;;;;;5039248;28;20252;-70
2022/01/09 01:21:33;;;;;;;23.90;5.20;;;7.20;99.90;;;;;;5038937;28;20256;-69
2022/01/09 01:23:59;;;;;;;23.60;5.37;;;7.10;99.90;;;;;;5038806;28;20224;-70
2022/01/09 01:26:24;;;;;;;23.10;4.30;;;7.20;99.90;;;;;;5039099;28;20532;-69
2022/01/09 01:28:50;;;;;;;19.30;4.93;;;7.10;99.90;;;;;;5039186;28;20178;-69
2022/01/09 01:31:16;;;;;;;18.97;4.37;;;7.10;99.90;;;;;;5037714;28;20176;-69
2022/01/09 01:33:42;;;;;;;17.77;3.57;;;7.00;99.90;;;;;;5038870;28;20205;-69
2022/01/09 01:36:08;;;;;;;14.30;4.03;;;6.90;99.90;;;;;;5038524;28;20248;-69
2022/01/09 01:38:33;;;;;;;17.77;4.37;;;6.90;99.90;;;;;;5037904;28;20209;-69
2022/01/09 01:40:59;;;;;;;18.80;4.07;;;6.90;99.90;;;;;;5039004;28;20205;-69
2022/01/09 01:43:25;;;;;;;23.83;4.90;;;6.90;99.90;;;;;;5038750;28;20162;-69
2022/01/09 01:45:51;;;;;;;19.90;3.87;;;6.90;99.90;;;;;;5039325;28;20177;-69
2022/01/09 01:48:17;;;;;;;27.33;4.73;;;7.00;99.90;;;;;;5039044;28;20181;-69
2022/01/09 01:50:43;;;;;;;22.57;4.70;;;6.90;99.90;;;;;;5035974;28;20296;-69
2022/01/09 01:53:13;;;;;;;23.80;4.73;;;7.00;99.90;;;;;;5035719;28;20185;-70
2022/01/09 01:55:40;;;;;;;24.00;5.20;;;7.00;99.90;;;;;;5035705;28;20217;-69
2022/01/09 01:58:10;;;;;;;24.20;4.53;;;7.10;99.90;;;;;;5035966;28;20319;-68
2022/01/09 02:00:37;;;;;;;22.13;4.73;;;7.10;99.90;;;;;;5035932;28;20194;-69
2022/01/09 02:03:03;;;;;;;20.03;5.83;;;7.10;99.90;;;;;;5035523;28;20181;-70
2022/01/09 02:05:29;;;;;;;18.67;5.20;;;7.10;99.90;;;;;;5033839;28;20193;-69
2022/01/09 02:07:57;;;;;;;23.60;5.33;;;7.10;99.90;;;;;;5035919;28;20174;-70
2022/01/09 02:10:22;;;;;;;23.57;5.43;;;7.20;99.90;;;;;;5035692;28;20166;-68
2022/01/09 02:12:50;;;;;;;20.20;4.87;;;7.30;99.90;;;;;;5035451;28;20264;-69
2022/01/09 02:15:37;;;;;;;22.10;4.80;;;7.30;99.90;;;;;;5035312;28;20209;-69
2022/01/09 02:18:06;;;;;;;18.47;4.20;;;7.30;99.90;;;;;;5035485;28;20200;-70
2022/01/09 02:20:33;;;;;;;18.07;4.40;;;7.10;99.90;;;;;;5034965;28;20185;-68
2022/01/09 02:22:59;;;;;;;18.07;4.17;;;7.10;99.90;;;;;;5035251;28;20189;-69
2022/01/09 02:25:26;;;;;;;21.57;4.47;;;7.10;99.90;;;;;;5034952;28;20225;-69
2022/01/09 02:27:52;;;;;;;18.40;4.70;;;7.10;99.90;;;;;;5035399;28;20170;-69
2022/01/09 02:30:18;;;;;;;15.17;4.13;;;7.10;99.90;;;;;;5035391;28;20189;-70
2022/01/09 02:32:44;;;;;;;13.77;3.70;;;7.10;99.90;;;;;;5035083;28;20167;-69
2022/01/09 02:35:09;;;;;;;19.67;4.07;;;7.10;99.90;;;;;;5034491;28;20591;-70
2022/01/09 02:37:35;;;;;;;16.63;3.93;;;7.10;99.90;;;;;;5034054;28;20265;-70
2022/01/09 02:40:01;;;;;;;16.10;3.50;;;7.10;99.90;;;;;;5035147;28;20174;-69
2022/01/09 02:42:29;;;;;;;16.53;3.60;;;7.10;99.90;;;;;;5034866;28;20583;-69
2022/01/09 02:44:55;;;;;;;13.80;3.70;;;7.10;99.90;;;;;;5033503;28;20177;-68
2022/01/09 02:47:22;;;;;;;15.47;3.57;;;7.10;99.90;;;;;;5034985;28;20174;-69
2022/01/09 02:49:51;;;;;;;15.50;3.77;;;7.10;99.90;;;;;;5034521;28;20185;-69
2022/01/09 02:52:25;;;;;;;17.00;4.03;;;7.10;99.90;;;;;;5034491;28;20200;-69
2022/01/09 02:57:35;;;;;;;15.27;3.70;;;7.10;99.90;;;;;;5034984;28;20169;-68
2022/01/09 03:00:00;;;;;;;17.53;3.70;;;7.10;99.90;;;;;;5034675;28;20165;-69
2022/01/09 03:02:26;;;;;;;15.13;3.57;;;7.00;99.90;;;;;;5034374;28;20300;-69
2022/01/09 03:04:51;;;;;;;15.03;3.40;;;6.90;99.90;;;;;;5034078;28;20174;-69
2022/01/09 03:07:17;;;;;;;17.83;3.70;;;6.90;99.90;;;;;;5034762;28;20170;-69
2022/01/09 03:09:42;;;;;;;15.47;3.70;;;6.90;99.90;;;;;;5034482;28;20635;-69
2022/01/09 03:12:11;;;;;;;9.87;3.20;;;6.90;99.90;;;;;;5034606;28;20265;-70
2022/01/09 03:14:36;;;;;;;16.07;3.57;;;6.90;99.90;;;;;;5034189;28;20206;-68
2022/01/09 03:17:02;;;;;;;16.20;4.33;;;6.90;99.90;;;;;;5034180;28;20689;-69
2022/01/09 03:19:28;;;;;;;22.87;3.60;;;6.90;99.90;;;;;;5033902;28;20174;-69
2022/01/09 03:21:53;;;;;;;14.57;3.33;;;6.80;99.90;;;;;;5034234;28;20264;-69
2022/01/09 03:24:19;;;;;;;13.00;3.90;;;6.80;99.90;;;;;;5033909;28;20217;-69
2022/01/09 03:26:45;;;;;;;13.10;3.70;;;6.70;99.90;;;;;;5034181;28;20622;-68
2022/01/09 03:29:10;;;;;;;22.90;4.00;;;6.80;99.90;;;;;;5034113;28;20193;-69
2022/01/09 03:31:36;;;;;;;17.60;4.00;;;6.70;99.90;;;;;;5033568;28;20213;-70
2022/01/09 03:34:02;;;;;;;16.63;3.80;;;6.70;99.90;;;;;;5034103;28;20174;-69
2022/01/09 03:36:27;;;;;;;14.07;3.60;;;6.70;99.90;;;;;;5034090;28;20220;-69
2022/01/09 03:38:53;;;;;;;19.33;3.93;;;6.60;99.90;;;;;;5034089;28;20166;-70
2022/01/09 03:41:18;;;;;;;15.83;3.60;;;6.50;99.90;;;;;;5033836;28;20687;-69
2022/01/09 03:43:44;;;;;;;15.87;3.60;;;6.50;99.90;;;;;;5033858;28;20181;-70
2022/01/09 03:46:10;;;;;;;17.67;3.20;;;6.50;99.90;;;;;;5033431;28;20174;-70
2022/01/09 03:48:35;;;;;;;13.60;3.27;;;6.60;99.90;;;;;;5033756;28;20532;-68
2022/01/09 03:51:02;;;;;;;14.00;3.33;;;6.50;99.90;;;;;;5033776;28;20174;-69
2022/01/09 03:53:28;;;;;;;11.50;3.03;;;6.60;99.90;;;;;;5033558;28;20181;-69
2022/01/09 03:55:55;;;;;;;14.63;3.43;;;6.70;99.90;;;;;;5033373;28;20212;-69
2022/01/09 03:58:21;;;;;;;13.30;2.90;;;6.70;99.90;;;;;;5033467;28;20249;-69
2022/01/09 04:00:47;;;;;;;10.73;2.97;;;6.70;99.90;;;;;;5033042;28;20262;-69
2022/01/09 04:03:12;;;;;;;16.60;3.50;;;6.70;99.90;;;;;;5033384;28;20205;-68
2022/01/09 04:05:38;;;;;;;18.97;3.50;;;6.60;99.90;;;;;;5033227;28;20178;-68
2022/01/09 04:08:04;;;;;;;14.73;3.33;;;6.70;99.90;;;;;;5033526;28;20648;-69
2022/01/09 04:10:30;;;;;;;16.13;3.23;;;6.70;99.90;;;;;;5033354;28;20184;-69
2022/01/09 04:13:00;;;;;;;17.10;3.40;;;6.70;99.90;;;;;;5032970;28;20177;-69
2022/01/09 04:15:27;;;;;;;16.27;3.33;;;6.60;99.90;;;;;;5032575;28;20694;-69
2022/01/09 04:17:55;;;;;;;15.77;3.00;;;6.70;99.90;;;;;;5033306;28;20182;-69
2022/01/09 04:20:28;;;;;;;13.80;3.20;;;6.80;99.90;;;;;;5033257;28;20166;-68
2022/01/09 04:22:54;;;;;;;13.80;2.97;;;6.70;99.90;;;;;;5033104;28;20173;-69
2022/01/09 04:25:20;;;;;;;15.80;3.73;;;6.70;99.90;;;;;;5032867;28;20232;-70
2022/01/09 04:27:47;;;;;;;13.50;3.57;;;6.70;99.90;;;;;;5033068;28;20220;-69
2022/01/09 04:30:13;;;;;;;11.43;2.80;;;6.70;99.90;;;;;;5032797;28;20181;-70
2022/01/09 04:32:39;;;;;;;19.50;3.30;;;6.60;99.90;;;;;;5033163;28;20186;-69
2022/01/09 04:35:06;;;;;;;10.27;2.90;;;6.50;99.90;;;;;;5033004;28;20304;-68
2022/01/09 04:37:33;;;;;;;11.20;3.17;;;6.50;99.90;;;;;;5033124;28;20174;-67
2022/01/09 04:39:59;;;;;;;18.37;3.60;;;6.50;99.90;;;;;;5032977;28;20265;-69
2022/01/09 04:42:38;;;;;;;14.07;2.80;;;6.40;99.90;;;;;;5032658;28;20174;-69
2022/01/09 04:45:04;;;;;;;16.37;3.20;;;6.30;99.90;;;;;;5032208;28;20680;-69
2022/01/09 04:47:30;;;;;;;13.83;2.93;;;6.30;99.90;;;;;;5032802;28;20633;-69
2022/01/09 04:49:56;;;;;;;14.97;3.23;;;6.30;99.90;;;;;;5032477;28;20236;-69
2022/01/09 04:52:27;;;;;;;17.30;3.23;;;6.20;99.90;;;;;;5032867;28;20290;-69
2022/01/09 04:54:52;;;;;;;9.60;2.80;;;6.10;99.90;;;;;;5032417;28;20194;-69
2022/01/09 04:57:18;;;;;;;16.63;2.63;;;6.20;99.90;;;;;;5032391;28;20181;-69
2022/01/09 04:59:43;;;;;;;14.60;3.00;;;6.10;99.90;;;;;;5032318;28;20314;-68
2022/01/09 05:02:09;;;;;;;11.80;2.90;;;6.10;99.90;;;;;;5032639;28;20598;-69
2022/01/09 05:04:35;;;;;;;14.00;3.27;;;6.10;99.90;;;;;;5032330;28;20174;-68
2022/01/09 05:07:01;;;;;;;11.23;3.23;;;6.10;99.90;;;;;;5032812;28;20607;-69
2022/01/09 05:09:26;;;;;;;12.17;2.87;;;6.10;99.90;;;;;;5032699;28;20209;-68
2022/01/09 05:11:52;;;;;;;13.57;3.13;;;6.10;99.90;;;;;;5032312;28;20259;-69
2022/01/09 05:14:17;;;;;;;9.80;2.40;;;6.10;99.90;;;;;;5032022;28;20181;-69
2022/01/09 05:16:45;;;;;;;14.47;2.97;;;6.10;99.90;;;;;;5032645;28;20744;-68
2022/01/09 05:19:18;;;;;;;13.37;2.80;;;6.20;99.90;;;;;;5033009;28;20216;-69
2022/01/09 05:21:44;;;;;;;8.03;2.50;;;6.20;99.90;;;;;;5031140;28;20186;-68
2022/01/09 05:24:10;;;;;;;13.90;2.60;;;6.30;99.90;;;;;;5032197;28;20248;-68
2022/01/09 05:26:35;;;;;;;8.40;2.97;;;6.40;99.90;;;;;;5033184;28;20578;-69
2022/01/09 05:29:01;;;;;;;11.07;2.57;;;6.30;99.90;;;;;;5035946;28;20176;-69
2022/01/09 05:31:27;;;;;;;9.50;2.60;;;6.30;99.90;;;;;;5036230;28;20166;-70
2022/01/09 05:33:52;;;;;;;11.23;2.80;;;6.30;99.90;;;;;;5035788;28;20293;-68
2022/01/09 05:36:18;;;;;;;8.97;2.60;;;6.20;99.90;;;;;;5035536;28;20694;-69
2022/01/09 05:38:44;;;;;;;10.13;2.70;;;6.10;99.90;;;;;;5036438;28;20177;-67
2022/01/09 05:41:10;;;;;;;12.67;2.87;;;6.00;99.90;;;;;;5035752;28;20220;-68
2022/01/09 05:43:36;;;;;;;12.47;2.60;;;5.90;99.90;;;;;;5035276;28;20253;-68
2022/01/09 05:46:02;;;;;;;11.87;3.27;;;5.80;99.90;;;;;;5035474;28;20288;-68
2022/01/09 05:48:27;;;;;;;8.97;3.00;;;5.80;99.90;;;;;;5036088;28;20597;-68
2022/01/09 05:50:53;;;;;;;10.30;3.07;;;5.80;99.90;;;;;;5035405;28;20174;-68
2022/01/09 05:53:18;;;;;;;9.60;2.80;;;5.70;99.90;;;;;;5035502;28;20293;-69
2022/01/09 05:55:44;;;;;;;8.63;2.40;;;5.70;99.90;;;;;;5035274;28;20240;-69
2022/01/09 05:58:10;;;;;;;7.60;2.43;;;5.80;99.90;;;;;;5035364;28;20166;-68
2022/01/09 06:00:36;;;;;;;12.53;3.40;;;5.90;99.90;;;;;;5035638;28;20228;-68
2022/01/09 06:03:02;;;;;;;9.90;2.93;;;5.90;99.90;;;;;;5035593;28;20634;-68
2022/01/09 06:05:27;;;;;;;13.70;3.47;;;5.80;99.90;;;;;;5035430;28;20253;-68
2022/01/09 06:07:53;;;;;;;7.93;2.87;;;5.80;99.90;;;;;;5035795;28;20529;-69
2022/01/09 06:10:18;;;;;;;8.03;3.00;;;5.90;99.90;;;;;;5035209;28;20630;-69
2022/01/09 06:12:44;;;;;;;10.30;2.90;;;5.90;99.90;;;;;;5034745;28;20608;-69
2022/01/09 06:15:10;;;;;;;12.13;2.70;;;5.90;99.90;;;;;;5035028;28;20213;-69
2022/01/09 06:17:41;;;;;;;8.67;2.90;;;5.90;99.90;;;;;;5035011;28;20239;-69
2022/01/09 06:20:07;;;;;;;7.90;2.63;;;5.90;99.90;;;;;;5035654;28;20174;-69
2022/01/09 06:22:33;;;;;;;9.17;2.60;;;5.90;99.90;;;;;;5035090;28;20162;-69
2022/01/09 06:24:59;;;;;;;8.47;3.33;;;5.90;99.90;;;;;;5034663;28;20312;-68
2022/01/09 06:27:26;;;;;;;8.37;2.93;;;5.80;99.90;;;;;;5034845;28;20229;-69
2022/01/09 06:29:52;;;;;;;7.67;3.10;;;5.70;99.90;;;;;;5035148;28;20625;-69
2022/01/09 06:32:17;;;;;;;11.87;3.40;;;5.80;99.90;;;;;;5035110;28;20174;-69
2022/01/09 06:34:43;;;;;;;8.90;3.10;;;5.80;99.90;;;;;;5034800;28;20220;-68
2022/01/09 06:37:12;;;;;;;9.80;3.30;;;5.70;99.90;;;;;;5034570;28;20260;-69
2022/01/09 06:39:41;;;;;;;7.60;2.97;;;5.70;99.90;;;;;;5034766;28;20178;-69
2022/01/09 06:42:07;;;;;;;11.40;3.10;;;5.70;99.90;;;;;;5034200;28;20176;-69
2022/01/09 06:44:33;;;;;;;9.70;2.93;;;5.80;99.90;;;;;;5034530;28;20181;-69
2022/01/09 06:46:58;;;;;;;6.80;2.90;;;5.90;99.90;;;;;;5034721;28;20170;-69
2022/01/09 06:49:24;;;;;;;8.17;2.53;;;5.90;99.90;;;;;;5034622;28;20622;-69
2022/01/09 06:51:50;;;;;;;12.83;2.97;;;5.80;99.90;;;;;;5034479;28;20190;-69
2022/01/09 06:54:15;;;;;;;13.40;2.87;;;5.80;99.90;;;;;;5034164;28;20254;-69
2022/01/09 06:56:41;;;;;;;8.20;2.63;;;5.70;99.90;;;;;;5034499;28;20178;-69
2022/01/09 06:59:07;;;;;;;8.47;2.70;;;5.60;99.90;;;;;;5034325;28;20166;-69
2022/01/09 07:01:33;;;;;;;10.97;3.03;;;5.50;99.90;;;;;;5034805;28;20185;-69
2022/01/09 07:03:59;;;;;;;14.93;3.00;;;5.50;99.90;;;;;;5034453;28;20174;-69
2022/01/09 07:06:24;;;;;;;9.20;2.73;;;5.40;99.90;;;;;;5034188;28;20216;-70
2022/01/09 07:08:50;;;;;;;8.23;2.50;;;5.50;99.90;;;;;;5034447;28;20178;-69
2022/01/09 07:11:15;;;;;;;9.07;2.60;;;5.50;99.90;;;;;;5033411;28;20174;-69
2022/01/09 07:13:41;;;;;;;10.20;3.00;;;5.40;99.90;;;;;;5033845;28;20646;-69
2022/01/09 07:16:07;;;;;;;11.43;2.27;;;5.40;99.90;;;;;;5033908;28;20305;-69
2022/01/09 07:18:33;;;;;;;11.83;2.60;;;5.40;99.90;;;;;;5033646;28;20174;-69
2022/01/09 07:20:59;;;;;;;15.33;2.73;;;5.30;99.90;;;;;;5033962;28;20173;-68
2022/01/09 07:23:24;;;;;;;10.50;2.63;;;5.40;99.90;;;;;;5034020;28;20618;-69
2022/01/09 07:25:50;;;;;;;9.47;2.30;;;5.40;99.90;;;;;;5032965;28;20252;-69
2022/01/09 07:28:15;;;;;;;12.63;2.80;;;5.40;99.90;;;;;;5034103;28;20185;-69
2022/01/09 07:30:41;;;;;;;11.10;2.83;;;5.50;99.90;;;;;;5033968;28;20174;-69
2022/01/09 07:33:08;;;;;;;8.77;2.43;;;5.50;99.90;;;;;;5034002;28;20261;-69
2022/01/09 07:35:34;;;;;;;9.03;2.83;;;5.50;99.90;;;;;;5033469;28;20214;-69
2022/01/09 07:38:00;;;;;;;9.87;3.30;;;5.60;99.90;;;;;;5033646;28;20162;-69
2022/01/09 07:40:26;;;;;;;11.07;2.73;;;5.70;99.90;;;;;;5033285;28;20181;-70
2022/01/09 07:42:51;;;;;;;16.87;3.70;;;5.70;99.90;;;;;;5033457;28;20174;-71
2022/01/09 07:45:22;;;;;;;10.50;2.90;;;5.70;99.90;;;;;;5033412;28;20166;-70
2022/01/09 07:47:48;;;;;;;13.87;2.83;;;5.70;99.90;;;;;;5032688;28;20170;-70
2022/01/09 07:50:14;;;;;;;10.80;2.70;;;5.70;99.90;;;;;;5032682;28;20173;-70
2022/01/09 07:52:41;;;;;;;12.77;2.90;;;5.80;99.90;;;;;;5032891;28;20687;-70
2022/01/09 07:55:08;;;;;;;13.43;2.90;;;5.80;99.90;;;;;;5033088;28;20712;-69
2022/01/09 07:57:35;;;;;;;11.37;2.63;;;5.80;99.90;;;;;;5033538;28;20177;-69
2022/01/09 08:00:03;;;;;;;14.70;2.97;;;5.80;99.90;;;;;;5033011;28;20161;-70
2022/01/09 08:02:29;;;;;;;15.70;3.50;;;5.80;99.90;;;;;;5033296;28;20223;-70
2022/01/09 08:04:54;;;;;;;9.97;3.20;;;5.80;99.90;;;;;;5032667;28;20548;-70
2022/01/09 08:07:20;;;;;;;13.80;3.00;;;5.90;99.90;;;;;;5031793;28;20170;-70
2022/01/09 08:09:47;;;;;;;12.80;2.97;;;5.90;99.90;;;;;;5033108;28;20687;-70
2022/01/09 08:12:14;;;;;;;13.00;2.93;;;6.00;99.90;;;;;;5031025;28;20257;-70
2022/01/09 08:14:45;;;;;;;10.43;3.37;;;6.00;99.90;;;;;;5032550;28;20256;-70
2022/01/09 08:17:11;;;;;;;11.13;2.40;;;6.10;99.90;;;;;;5032490;28;20186;-70
2022/01/09 08:19:37;;;;;;;9.60;2.63;;;6.10;99.90;;;;;;5032133;28;20213;-70
2022/01/09 08:22:04;;;;;;;17.00;3.20;;;6.20;99.90;;;;;;5031760;28;20185;-71
2022/01/09 08:24:30;;;;;;;12.77;3.10;;;6.20;99.90;;;;;;5031941;28;20214;-70
2022/01/09 08:26:55;;;;;;;10.63;3.13;;;6.10;99.90;;;;;;5031951;28;20684;-70
2022/01/09 08:29:21;;;;;;;14.00;3.10;;;6.10;99.90;;;;;;5031979;28;20170;-70
2022/01/09 08:31:48;;;;;;;14.40;2.97;;;6.20;99.90;;;;;;5032321;28;20166;-70
2022/01/09 08:34:13;;;;;;;12.57;2.80;;;6.20;99.90;;;;;;5032040;28;20245;-69
2022/01/09 08:36:39;;;;;;;12.27;3.13;;;6.10;99.90;;;;;;5031445;28;20295;-69
2022/01/09 08:39:05;;;;;;;17.53;3.10;;;6.10;99.90;;;;;;5032450;28;20177;-70
2022/01/09 08:41:34;;;;;;;6.67;3.07;;;6.20;99.90;;;;;;5032622;28;20188;-70
2022/01/09 08:44:01;;;;;;;12.27;3.13;;;6.40;99.90;;;;;;5032475;28;20184;-70
2022/01/09 08:46:28;;;;;;;11.80;3.03;;;6.60;99.90;;;;;;5030680;28;20177;-71
2022/01/09 08:48:54;;;;;;;11.20;3.10;;;6.60;99.90;;;;;;5032186;28;20224;-69
2022/01/09 08:51:19;;;;;;;11.20;2.80;;;6.80;99.90;;;;;;5031904;28;20173;-71
2022/01/09 08:53:50;;;;;;;10.87;2.83;;;6.80;99.90;;;;;;5032235;28;20633;-71
2022/01/09 08:56:20;;;;;;;15.37;3.00;;;6.80;99.90;;;;;;5032468;28;20255;-70
2022/01/09 08:58:46;;;;;;;9.83;3.20;;;6.80;99.90;;;;;;5032332;28;20201;-71
2022/01/09 09:01:11;;;;;;;11.60;3.27;;;6.80;99.90;;;;;;5035394;28;20177;-70
2022/01/09 09:03:40;;;;;;;12.43;3.07;;;6.80;99.90;;;;;;5036576;28;20629;-71
2022/01/09 09:06:11;;;;;;;10.80;3.13;;;6.80;99.90;;;;;;5036312;28;20186;-71
2022/01/09 09:08:37;;;;;;;14.13;3.13;;;6.70;99.90;;;;;;5036446;28;20634;-70
2022/01/09 09:11:04;;;;;;;7.60;2.50;;;6.70;99.90;;;;;;5036256;28;20170;-71
2022/01/09 09:13:30;;;;;;;10.20;2.80;;;6.70;99.90;;;;;;5035550;28;20189;-71
2022/01/09 09:15:55;;;;;;;12.40;3.33;;;6.60;99.90;;;;;;5035714;28;20210;-71
2022/01/09 09:18:21;;;;;;;12.27;3.03;;;6.60;99.90;;;;;;5036179;28;20162;-71
2022/01/09 09:20:46;;;;;;;11.97;3.17;;;7.10;99.90;;;;;;5036009;28;20173;-70
2022/01/09 09:23:12;;;;;;;9.23;2.30;;;7.60;99.90;;;;;;5035699;28;20622;-70
2022/01/09 09:25:38;;;;;;;10.17;2.77;;;8.10;99.90;;;;;;5035710;28;20249;-70
2022/01/09 09:28:04;;;;;;;7.17;2.83;;;8.70;99.90;;;;;;5036031;28;20173;-70
2022/01/09 09:30:29;;;;;;;13.40;3.20;;;9.00;99.90;;;;;;5036143;28;20191;-70
2022/01/09 09:32:55;;;;;;;11.30;3.10;;;9.20;99.90;;;;;;5036070;28;20174;-69
2022/01/09 09:35:21;;;;;;;11.33;3.33;;;10.20;99.90;;;;;;5035292;28;20256;-70
2022/01/09 09:37:47;;;;;;;20.20;12.63;;;11.00;99.90;;;;;;5035823;28;20173;-71
2022/01/09 09:40:12;;;;;;;32.30;20.40;;;11.90;99.90;;;;;;5035880;28;20537;-71
2022/01/09 09:42:38;;;;;;;21.63;17.20;;;12.90;99.90;;;;;;5035524;28;20177;-71
2022/01/09 09:45:08;;;;;;;11.10;4.33;;;13.10;99.50;;;;;;5035484;28;20269;-71
2022/01/09 09:47:35;;;;;;;9.90;4.33;;;13.30;99.00;;;;;;5035450;28;20668;-70
2022/01/09 09:50:03;;;;;;;11.10;4.30;;;12.40;99.90;;;;;;5034804;28;20252;-72
2022/01/09 09:52:29;;;;;;;10.33;3.63;;;11.30;99.90;;;;;;5035826;28;20658;-72
2022/01/09 09:54:57;;;;;;;11.53;3.57;;;10.50;99.90;;;;;;5035495;28;20255;-71
2022/01/09 09:57:23;;;;;;;10.93;3.17;;;10.00;99.90;;;;;;5033722;28;20201;-73
2022/01/09 09:59:48;;;;;;;9.33;3.10;;;10.30;99.90;;;;;;5035160;28;20197;-71
2022/01/09 10:02:16;;;;;;;15.47;7.13;;;10.70;99.90;;;;;;5034025;28;20552;-72
2022/01/09 10:05:06;;;;;;;13.27;3.80;;;11.20;99.90;;;;;;5035008;28;20223;-72
2022/01/09 10:07:32;;;;;;;15.00;4.37;;;10.90;99.90;;;;;;5035601;28;20228;-74
2022/01/09 10:10:08;;;;;;;11.27;4.23;;;10.40;99.90;;;;;;5035168;28;20201;-72
2022/01/09 10:12:35;;;;;;;11.37;3.60;;;10.00;99.90;;;;;;5034221;28;20207;-72
2022/01/09 10:15:05;;;;;;;11.73;4.30;;;10.10;99.90;;;;;;5034607;28;20226;-72
2022/01/09 10:17:31;;;;;;;7.47;3.63;;;9.60;99.90;;;;;;5035166;28;20162;-72
2022/01/09 10:20:04;;;;;;;12.63;3.33;;;9.50;99.90;;;;;;5034641;28;20236;-71
2022/01/09 10:22:39;;;;;;;10.97;4.83;;;9.40;99.90;;;;;;5035070;28;20178;-71
2022/01/09 10:25:30;;;;;;;15.33;6.20;;;9.90;99.90;;;;;;5034067;28;20220;-72
2022/01/09 10:27:57;;;;;;;11.97;4.67;;;10.10;99.90;;;;;;5035077;28;20181;-71
2022/01/09 10:30:26;;;;;;;17.23;5.00;;;10.10;99.90;;;;;;5034870;28;20178;-71
2022/01/09 10:33:04;;;;;;;14.37;9.37;;;10.30;99.90;;;;;;5034368;28;20166;-72
2022/01/09 10:35:31;;;;;;;7.97;3.40;;;10.40;99.90;;;;;;5034182;28;20216;-71
2022/01/09 10:38:27;;;;;;;12.60;3.40;;;10.00;99.90;;;;;;5034861;28;20174;-70
2022/01/09 10:41:01;;;;;;;17.07;6.80;;;9.90;99.90;;;;;;5034813;28;20685;-72
2022/01/09 10:43:34;;;;;;;10.20;3.77;;;9.80;99.90;;;;;;5034923;28;20331;-72
2022/01/09 10:46:01;;;;;;;9.63;3.23;;;9.80;99.90;;;;;;5034200;28;20205;-70
2022/01/09 10:48:35;;;;;;;17.33;5.30;;;9.90;99.90;;;;;;5034157;28;20715;-71
2022/01/09 10:51:06;;;;;;;10.50;3.93;;;10.00;99.90;;;;;;5034122;28;20618;-72
2022/01/09 10:53:36;;;;;;;8.70;3.30;;;10.40;99.90;;;;;;5034050;28;20216;-71
2022/01/09 10:56:28;;;;;;;9.23;3.60;;;10.70;99.90;;;;;;5034337;28;20213;-71
2022/01/09 10:58:57;;;;;;;11.13;3.53;;;11.00;99.90;;;;;;5034190;28;20244;-72
2022/01/09 11:01:29;;;;;;;8.30;3.00;;;11.30;99.90;;;;;;5034083;28;20177;-72
2022/01/09 11:04:01;;;;;;;11.60;3.30;;;11.30;99.90;;;;;;5033693;28;20174;-71
2022/01/09 11:06:32;;;;;;;8.87;3.17;;;11.10;99.90;;;;;;5034310;28;20178;-71
2022/01/09 11:08:58;;;;;;;7.93;3.33;;;11.10;99.90;;;;;;5034341;28;20261;-71
2022/01/09 11:14:20;;;;;;;12.50;3.17;;;11.00;99.90;;;;;;5033862;28;20550;-72
2022/01/09 11:16:51;;;;;;;11.90;2.97;;;10.50;99.90;;;;;;5033252;28;20286;-73
2022/01/09 11:19:19;;;;;;;8.93;3.23;;;10.40;99.90;;;;;;5034071;28;20204;-72
2022/01/09 11:21:49;;;;;;;8.97;2.93;;;11.10;99.90;;;;;;5033585;28;20166;-72
2022/01/09 11:24:25;;;;;;;9.57;3.73;;;11.70;99.90;;;;;;5033398;28;20232;-72
2022/01/09 11:27:25;;;;;;;11.30;4.27;;;12.30;99.90;;;;;;5033099;28;20178;-72
2022/01/09 11:30:14;;;;;;;10.47;3.30;;;12.40;98.60;;;;;;5033392;28;20186;-71
2022/01/09 11:33:10;;;;;;;10.97;3.90;;;11.90;98.70;;;;;;5033825;28;20178;-71
2022/01/09 11:35:54;;;;;;;6.83;3.10;;;11.60;99.90;;;;;;5033467;28;20267;-71
2022/01/09 11:38:50;;;;;;;6.80;4.00;;;11.40;99.90;;;;;;5033857;28;20216;-71
2022/01/09 11:41:28;;;;;;;8.80;4.00;;;11.50;99.90;;;;;;5033053;28;20189;-71
2022/01/09 11:43:55;;;;;;;8.87;3.93;;;11.10;99.90;;;;;;5032149;28;20181;-71
2022/01/09 11:46:22;;;;;;;9.77;3.20;;;11.30;99.90;;;;;;5032917;28;20205;-71
2022/01/09 11:48:50;;;;;;;14.23;3.13;;;10.80;99.90;;;;;;5032981;28;20248;-70
2022/01/09 11:51:20;;;;;;;13.53;3.87;;;10.40;99.90;;;;;;5032773;28;20189;-69
2022/01/09 11:54:07;;;;;;;10.47;3.37;;;10.20;99.90;;;;;;5032728;28;20185;-71
2022/01/09 11:56:45;;;;;;;13.23;4.17;;;10.30;99.90;;;;;;5033210;28;20565;-70
2022/01/09 11:59:40;;;;;;;11.10;3.30;;;10.00;99.90;;;;;;5032497;28;20283;-71
2022/01/09 12:02:29;;;;;;;13.33;3.30;;;10.10;99.90;;;;;;5035147;28;20277;-71
2022/01/09 12:05:01;;;;;;;5.97;3.03;;;9.90;99.90;;;;;;5031563;28;20600;-70
2022/01/09 12:07:32;;;;;;;13.83;3.63;;;9.90;99.90;;;;;;5033316;28;20718;-71
2022/01/09 12:09:59;;;;;;;13.10;3.60;;;9.70;99.90;;;;;;5032439;28;20197;-72
2022/01/09 12:12:31;;;;;;;14.17;3.50;;;9.30;99.90;;;;;;5032775;28;20204;-71
2022/01/09 12:15:01;;;;;;;10.40;3.10;;;9.20;99.90;;;;;;5032384;28;20636;-70
2022/01/09 12:17:37;;;;;;;30.10;21.90;;;9.20;99.90;;;;;;5033103;28;20174;-71
2022/01/09 12:20:13;;;;;;;18.77;8.13;;;9.20;99.90;;;;;;5032319;28;20165;-72
2022/01/09 12:23:24;;;;;;;17.23;11.20;;;9.00;99.90;;;;;;5032899;28;20162;-70
2022/01/09 12:25:25;;;;;;;12.27;3.87;;;9.10;99.90;;;;;;5034913;28;20693;-70
2022/01/09 12:27:54;;;;;;;9.83;4.37;;;9.30;99.90;;;;;;5032881;28;20170;-71
2022/01/09 12:30:41;;;;;;;12.63;3.33;;;9.30;99.90;;;;;;5032374;28;20166;-70
2022/01/09 12:33:20;;;;;;;13.30;3.40;;;9.30;99.90;;;;;;5032652;28;20170;-70
2022/01/09 12:35:47;;;;;;;16.00;5.63;;;9.50;99.90;;;;;;5031849;28;20197;-71
2022/01/09 12:38:18;;;;;;;15.47;4.30;;;9.60;99.90;;;;;;5032538;28;20220;-71
2022/01/09 12:40:45;;;;;;;13.27;3.90;;;10.00;99.90;;;;;;5032313;28;20182;-71
2022/01/09 12:43:11;;;;;;;12.97;3.77;;;10.10;99.90;;;;;;5032232;28;20166;-71
2022/01/09 12:45:43;;;;;;;13.17;3.47;;;10.30;99.90;;;;;;5032030;28;20178;-71
2022/01/09 12:48:21;;;;;;;12.47;3.43;;;10.10;99.90;;;;;;5032154;28;20166;-70
2022/01/09 12:50:48;;;;;;;12.63;3.27;;;10.40;99.90;;;;;;5032178;28;20173;-70
2022/01/09 12:53:28;;;;;;;14.67;3.27;;;10.20;99.90;;;;;;5032912;28;20186;-71
2022/01/09 12:55:58;;;;;;;10.83;3.27;;;10.10;99.90;;;;;;5031850;28;20209;-71
2022/01/09 12:58:35;;;;;;;13.40;3.50;;;10.00;99.90;;;;;;5032044;28;20201;-71